sensor_id;sensor_type;location;lat;lon;timestamp;pressure;altitude;pressure_sealevel;temperature;humidity
5651;BME280;40241;52.684;9.758;2023-02-23T00:01:22;100930.44;;;9.88;66.67
5651;BME280;40241;52.684;9.758;2023-02-23T00:03:48;100932.91;;;9.86;66.62
5651;BME280;40241;52.684;9.758;2023-02-23T00:06:16;100922.88;;;9.83;66.59
5651;BME280;40241;52.684;9.758;2023-02-23T00:08:42;100921.38;;;9.82;66.62
5651;BME280;40241;52.684;9.758;2023-02-23T00:11:09;100922.59;;;9.81;66.64
5651;BME280;40241;52.684;9.758;2023-02-23T00:13:37;100917.81;;;9.76;66.75
5651;BME280;40241;52.684;9.758;2023-02-23T00:16:06;100920.47;;;9.70;66.66
5651;BME280;40241;52.684;9.758;2023-02-23T00:18:32;100928.44;;;9.68;66.61
5651;BME280;40241;52.684;9.758;2023-02-23T00:21:13;100920.41;;;9.65;66.53
5651;BME280;40241;52.684;9.758;2023-02-23T00:23:41;100912.06;;;9.59;66.81
5651;BME280;40241;52.684;9.758;2023-02-23T00:26:06;100921.56;;;9.58;66.68
5651;BME280;40241;52.684;9.758;2023-02-23T00:28:32;100920.53;;;9.56;66.73
5651;BME280;40241;52.684;9.758;2023-02-23T00:31:00;100922.50;;;9.55;66.77
5651;BME280;40241;52.684;9.758;2023-02-23T00:33:26;100925.75;;;9.54;66.75
5651;BME280;40241;52.684;9.758;2023-02-23T00:35:51;100919.22;;;9.51;66.84
5651;BME280;40241;52.684;9.758;2023-02-23T00:38:19;100923.19;;;9.50;66.64
5651;BME280;40241;52.684;9.758;2023-02-23T00:40:44;100925.09;;;9.44;66.71
5651;BME280;40241;52.684;9.758;2023-02-23T00:43:10;100924.81;;;9.42;66.77
5651;BME280;40241;52.684;9.758;2023-02-23T00:45:35;100927.78;;;9.39;66.80
5651;BME280;40241;52.684;9.758;2023-02-23T00:48:01;100929.47;;;9.36;66.68
5651;BME280;40241;52.684;9.758;2023-02-23T00:50:27;100927.22;;;9.35;66.58
5651;BME280;40241;52.684;9.758;2023-02-23T00:52:55;100926.47;;;9.34;66.52
5651;BME280;40241;52.684;9.758;2023-02-23T00:55:23;100916.41;;;9.31;66.77
5651;BME280;40241;52.684;9.758;2023-02-23T00:57:49;100918.13;;;9.29;66.59
5651;BME280;40241;52.684;9.758;2023-02-23T01:00:14;100917.38;;;9.28;66.61
5651;BME280;40241;52.684;9.758;2023-02-23T01:02:48;100923.81;;;9.25;66.53
5651;BME280;40241;52.684;9.758;2023-02-23T01:05:14;100920.31;;;9.25;66.67
5651;BME280;40241;52.684;9.758;2023-02-23T01:07:40;100918.81;;;9.24;66.57
5651;BME280;40241;52.684;9.758;2023-02-23T01:10:07;100927.06;;;9.24;66.49
5651;BME280;40241;52.684;9.758;2023-02-23T01:12:49;100924.97;;;9.19;66.57
5651;BME280;40241;52.684;9.758;2023-02-23T01:15:15;100935.38;;;9.15;66.56
5651;BME280;40241;52.684;9.758;2023-02-23T01:17:41;100936.16;;;9.15;66.73
5651;BME280;40241;52.684;9.758;2023-02-23T01:20:12;100934.63;;;9.14;66.67
5651;BME280;40241;52.684;9.758;2023-02-23T01:22:48;100936.88;;;9.16;66.67
5651;BME280;40241;52.684;9.758;2023-02-23T01:25:15;100931.59;;;9.12;66.41
5651;BME280;40241;52.684;9.758;2023-02-23T01:27:41;100933.31;;;9.10;66.53
5651;BME280;40241;52.684;9.758;2023-02-23T01:30:09;100933.78;;;9.08;66.59
5651;BME280;40241;52.684;9.758;2023-02-23T01:32:36;100940.03;;;9.09;66.81
5651;BME280;40241;52.684;9.758;2023-02-23T01:35:07;100929.78;;;9.09;66.53
5651;BME280;40241;52.684;9.758;2023-02-23T01:37:36;100934.06;;;9.10;66.42
5651;BME280;40241;52.684;9.758;2023-02-23T01:40:06;100934.44;;;9.03;66.45
5651;BME280;40241;52.684;9.758;2023-02-23T01:42:38;100937.66;;;9.01;66.60
5651;BME280;40241;52.684;9.758;2023-02-23T01:45:26;100942.13;;;8.99;66.65
5651;BME280;40241;52.684;9.758;2023-02-23T01:47:55;100942.59;;;8.97;66.69
5651;BME280;40241;52.684;9.758;2023-02-23T01:50:24;100936.34;;;8.97;66.48
5651;BME280;40241;52.684;9.758;2023-02-23T01:52:51;100940.50;;;8.92;66.46
5651;BME280;40241;52.684;9.758;2023-02-23T01:55:18;100938.81;;;8.95;66.61
5651;BME280;40241;52.684;9.758;2023-02-23T01:57:53;100929.53;;;8.92;66.56
5651;BME280;40241;52.684;9.758;2023-02-23T02:00:21;100938.97;;;8.91;66.35
5651;BME280;40241;52.684;9.758;2023-02-23T02:02:50;100930.47;;;8.89;66.60
5651;BME280;40241;52.684;9.758;2023-02-23T02:05:17;100933.50;;;8.91;66.39
5651;BME280;40241;52.684;9.758;2023-02-23T02:07:45;100935.97;;;8.89;66.48
5651;BME280;40241;52.684;9.758;2023-02-23T02:10:12;100930.66;;;8.86;66.61
5651;BME280;40241;52.684;9.758;2023-02-23T02:12:39;100931.44;;;8.86;66.50
5651;BME280;40241;52.684;9.758;2023-02-23T02:15:06;100934.47;;;8.88;66.57
5651;BME280;40241;52.684;9.758;2023-02-23T02:17:54;100921.47;;;8.89;66.66
5651;BME280;40241;52.684;9.758;2023-02-23T02:42:37;100931.69;;;8.74;66.82
5651;BME280;40241;52.684;9.758;2023-02-23T02:45:25;100944.38;;;8.71;66.63
5651;BME280;40241;52.684;9.758;2023-02-23T02:48:05;100940.13;;;8.70;66.73
5651;BME280;40241;52.684;9.758;2023-02-23T02:54:13;100932.09;;;8.67;66.76
5651;BME280;40241;52.684;9.758;2023-02-23T02:56:37;100929.81;;;8.65;66.76
5651;BME280;40241;52.684;9.758;2023-02-23T02:59:12;100925.84;;;8.66;66.75
5651;BME280;40241;52.684;9.758;2023-02-23T03:01:57;100926.13;;;8.68;66.96
5651;BME280;40241;52.684;9.758;2023-02-23T03:04:41;100925.94;;;8.72;66.88
5651;BME280;40241;52.684;9.758;2023-02-23T03:07:46;100924.22;;;8.74;67.24
5651;BME280;40241;52.684;9.758;2023-02-23T03:11:04;100929.06;;;8.79;67.38
5651;BME280;40241;52.684;9.758;2023-02-23T03:14:35;100925.66;;;8.84;67.26
5651;BME280;40241;52.684;9.758;2023-02-23T03:17:26;100923.47;;;8.88;67.05
5651;BME280;40241;52.684;9.758;2023-02-23T03:20:42;100925.53;;;8.93;67.49
5651;BME280;40241;52.684;9.758;2023-02-23T03:24:15;100932.63;;;9.00;67.26
5651;BME280;40241;52.684;9.758;2023-02-23T03:27:41;100929.44;;;9.01;67.42
5651;BME280;40241;52.684;9.758;2023-02-23T03:30:24;100935.75;;;9.07;67.29
5651;BME280;40241;52.684;9.758;2023-02-23T03:33:16;100936.59;;;9.14;67.31
5651;BME280;40241;52.684;9.758;2023-02-23T03:36:06;100939.63;;;9.16;67.28
5651;BME280;40241;52.684;9.758;2023-02-23T03:39:00;100943.97;;;9.22;67.40
5651;BME280;40241;52.684;9.758;2023-02-23T03:41:48;100949.56;;;9.28;67.31
5651;BME280;40241;52.684;9.758;2023-02-23T03:44:38;100949.91;;;9.35;67.43
5651;BME280;40241;52.684;9.758;2023-02-23T03:47:26;100950.00;;;9.41;67.48
5651;BME280;40241;52.684;9.758;2023-02-23T03:50:29;100954.81;;;9.46;67.83
5651;BME280;40241;52.684;9.758;2023-02-23T03:53:17;100953.88;;;9.49;67.40
5651;BME280;40241;52.684;9.758;2023-02-23T03:56:07;100959.16;;;9.52;67.55
5651;BME280;40241;52.684;9.758;2023-02-23T03:58:58;100959.25;;;9.58;67.75
5651;BME280;40241;52.684;9.758;2023-02-23T04:01:45;100967.50;;;9.58;67.57
5651;BME280;40241;52.684;9.758;2023-02-23T04:04:29;100955.75;;;9.57;67.62
5651;BME280;40241;52.684;9.758;2023-02-23T04:07:16;100953.28;;;9.59;67.59
5651;BME280;40241;52.684;9.758;2023-02-23T04:10:01;100949.31;;;9.60;67.65
5651;BME280;40241;52.684;9.758;2023-02-23T04:12:53;100956.28;;;9.61;67.67
5651;BME280;40241;52.684;9.758;2023-02-23T04:15:52;100951.84;;;9.64;67.89
5651;BME280;40241;52.684;9.758;2023-02-23T04:18:27;100958.66;;;9.68;67.63
5651;BME280;40241;52.684;9.758;2023-02-23T04:20:54;100946.72;;;9.71;67.56
5651;BME280;40241;52.684;9.758;2023-02-23T04:23:20;100946.22;;;9.73;67.49
5651;BME280;40241;52.684;9.758;2023-02-23T04:25:50;100949.75;;;9.73;67.69
5651;BME280;40241;52.684;9.758;2023-02-23T04:28:16;100950.50;;;9.74;67.73
5651;BME280;40241;52.684;9.758;2023-02-23T04:30:42;100948.03;;;9.76;67.73
5651;BME280;40241;52.684;9.758;2023-02-23T04:33:08;100939.50;;;9.74;67.70
5651;BME280;40241;52.684;9.758;2023-02-23T04:35:33;100948.75;;;9.76;67.82
5651;BME280;40241;52.684;9.758;2023-02-23T04:37:59;100943.09;;;9.80;67.82
5651;BME280;40241;52.684;9.758;2023-02-23T04:40:25;100944.59;;;9.81;67.76
5651;BME280;40241;52.684;9.758;2023-02-23T04:42:51;100944.84;;;9.83;67.76
5651;BME280;40241;52.684;9.758;2023-02-23T04:45:17;100949.41;;;9.86;67.81
5651;BME280;40241;52.684;9.758;2023-02-23T04:47:43;100958.41;;;9.87;67.77
5651;BME280;40241;52.684;9.758;2023-02-23T04:50:09;100939.19;;;9.87;67.91
5651;BME280;40241;52.684;9.758;2023-02-23T04:52:34;100948.72;;;9.91;67.85
5651;BME280;40241;52.684;9.758;2023-02-23T04:55:02;100942.75;;;9.93;67.84
5651;BME280;40241;52.684;9.758;2023-02-23T04:57:27;100939.50;;;9.94;67.78
5651;BME280;40241;52.684;9.758;2023-02-23T04:59:53;100945.75;;;9.95;67.79
5651;BME280;40241;52.684;9.758;2023-02-23T05:02:18;100950.31;;;9.98;67.84
5651;BME280;40241;52.684;9.758;2023-02-23T05:04:43;100948.31;;;9.98;67.78
5651;BME280;40241;52.684;9.758;2023-02-23T05:07:09;100949.34;;;10.01;67.83
5651;BME280;40241;52.684;9.758;2023-02-23T05:09:34;100946.59;;;10.01;67.85
5651;BME280;40241;52.684;9.758;2023-02-23T05:12:00;100954.66;;;10.04;67.85
5651;BME280;40241;52.684;9.758;2023-02-23T05:14:26;100948.66;;;10.06;67.91
5651;BME280;40241;52.684;9.758;2023-02-23T05:16:51;100954.44;;;10.08;67.89
5651;BME280;40241;52.684;9.758;2023-02-23T05:19:17;100951.19;;;10.09;67.83
5651;BME280;40241;52.684;9.758;2023-02-23T05:21:42;100956.25;;;10.11;67.86
5651;BME280;40241;52.684;9.758;2023-02-23T05:24:08;100951.50;;;10.11;67.85
5651;BME280;40241;52.684;9.758;2023-02-23T05:26:34;100953.28;;;10.14;67.96
5651;BME280;40241;52.684;9.758;2023-02-23T05:28:59;100951.03;;;10.13;67.94
5651;BME280;40241;52.684;9.758;2023-02-23T05:31:26;100953.28;;;10.14;68.05
5651;BME280;40241;52.684;9.758;2023-02-23T05:33:51;100956.03;;;10.14;67.90
5651;BME280;40241;52.684;9.758;2023-02-23T05:36:18;100963.34;;;10.17;67.96
5651;BME280;40241;52.684;9.758;2023-02-23T05:38:45;100966.34;;;10.19;68.05
5651;BME280;40241;52.684;9.758;2023-02-23T05:41:13;100963.88;;;10.21;68.02
5651;BME280;40241;52.684;9.758;2023-02-23T05:43:39;100964.16;;;10.23;67.99
5651;BME280;40241;52.684;9.758;2023-02-23T05:46:12;100961.19;;;10.27;68.06
5651;BME280;40241;52.684;9.758;2023-02-23T05:48:39;100964.69;;;10.27;68.13
5651;BME280;40241;52.684;9.758;2023-02-23T05:51:07;100971.22;;;10.30;68.11
5651;BME280;40241;52.684;9.758;2023-02-23T05:53:33;100967.53;;;10.33;68.10
5651;BME280;40241;52.684;9.758;2023-02-23T05:56:00;100979.81;;;10.37;68.12
5651;BME280;40241;52.684;9.758;2023-02-23T05:58:26;100970.59;;;10.40;68.21
5651;BME280;40241;52.684;9.758;2023-02-23T06:00:51;100980.63;;;10.43;68.19
5651;BME280;40241;52.684;9.758;2023-02-23T06:03:17;100972.66;;;10.45;68.13
5651;BME280;40241;52.684;9.758;2023-02-23T06:05:48;100974.91;;;10.47;68.17
5651;BME280;40241;52.684;9.758;2023-02-23T06:08:14;100978.44;;;10.47;68.09
5651;BME280;40241;52.684;9.758;2023-02-23T06:10:40;100986.47;;;10.51;68.28
5651;BME280;40241;52.684;9.758;2023-02-23T06:13:05;100978.47;;;10.53;68.03
5651;BME280;40241;52.684;9.758;2023-02-23T06:15:30;100980.50;;;10.52;68.13
5651;BME280;40241;52.684;9.758;2023-02-23T06:17:56;100977.19;;;10.48;68.15
5651;BME280;40241;52.684;9.758;2023-02-23T06:20:21;100989.72;;;10.49;68.07
5651;BME280;40241;52.684;9.758;2023-02-23T06:22:47;100989.22;;;10.51;68.10
5651;BME280;40241;52.684;9.758;2023-02-23T06:25:12;100989.47;;;10.53;68.37
5651;BME280;40241;52.684;9.758;2023-02-23T06:27:38;100988.25;;;10.54;68.17
5651;BME280;40241;52.684;9.758;2023-02-23T06:30:05;100995.06;;;10.59;68.20
5651;BME280;40241;52.684;9.758;2023-02-23T06:32:30;101002.63;;;10.64;68.21
5651;BME280;40241;52.684;9.758;2023-02-23T06:34:56;100997.13;;;10.64;68.29
5651;BME280;40241;52.684;9.758;2023-02-23T06:37:21;101000.16;;;10.66;68.15
5651;BME280;40241;52.684;9.758;2023-02-23T06:39:46;101012.91;;;10.69;68.33
5651;BME280;40241;52.684;9.758;2023-02-23T06:42:12;101017.47;;;10.72;68.36
5651;BME280;40241;52.684;9.758;2023-02-23T06:44:37;101026.75;;;10.74;68.08
5651;BME280;40241;52.684;9.758;2023-02-23T06:47:04;101018.78;;;10.76;68.25
5651;BME280;40241;52.684;9.758;2023-02-23T06:49:30;101013.25;;;10.76;68.29
5651;BME280;40241;52.684;9.758;2023-02-23T06:51:55;101012.78;;;10.78;68.24
5651;BME280;40241;52.684;9.758;2023-02-23T06:54:21;101019.31;;;10.80;68.37
5651;BME280;40241;52.684;9.758;2023-02-23T06:56:47;101014.56;;;10.81;68.15
5651;BME280;40241;52.684;9.758;2023-02-23T06:59:14;101032.56;;;10.82;68.37
5651;BME280;40241;52.684;9.758;2023-02-23T07:01:39;101028.59;;;10.83;68.40
5651;BME280;40241;52.684;9.758;2023-02-23T07:04:06;101027.34;;;10.84;68.48
5651;BME280;40241;52.684;9.758;2023-02-23T07:06:31;101028.38;;;10.86;68.38
5651;BME280;40241;52.684;9.758;2023-02-23T07:08:57;101025.88;;;10.88;68.29
5651;BME280;40241;52.684;9.758;2023-02-23T07:11:22;101039.19;;;10.90;68.30
5651;BME280;40241;52.684;9.758;2023-02-23T07:13:48;101030.44;;;10.91;68.26
5651;BME280;40241;52.684;9.758;2023-02-23T07:16:13;101032.69;;;10.93;68.46
5651;BME280;40241;52.684;9.758;2023-02-23T07:18:40;101032.50;;;10.96;68.39
5651;BME280;40241;52.684;9.758;2023-02-23T07:21:05;101033.50;;;10.99;68.38
5651;BME280;40241;52.684;9.758;2023-02-23T07:23:31;101031.78;;;11.01;68.23
5651;BME280;40241;52.684;9.758;2023-02-23T07:25:57;101036.53;;;11.01;68.22
5651;BME280;40241;52.684;9.758;2023-02-23T07:28:25;101039.56;;;11.03;68.30
5651;BME280;40241;52.684;9.758;2023-02-23T07:30:56;101045.88;;;11.09;68.33
5651;BME280;40241;52.684;9.758;2023-02-23T07:33:22;101036.38;;;11.10;68.33
5651;BME280;40241;52.684;9.758;2023-02-23T07:35:49;101042.13;;;11.12;68.42
5651;BME280;40241;52.684;9.758;2023-02-23T07:38:14;101038.91;;;11.13;68.35
5651;BME280;40241;52.684;9.758;2023-02-23T07:40:39;101035.16;;;11.16;68.26
5651;BME280;40241;52.684;9.758;2023-02-23T07:43:05;101038.19;;;11.18;68.33
5651;BME280;40241;52.684;9.758;2023-02-23T07:45:30;101030.97;;;11.21;68.28
5651;BME280;40241;52.684;9.758;2023-02-23T07:47:56;101041.00;;;11.24;68.48
5651;BME280;40241;52.684;9.758;2023-02-23T07:50:21;101037.00;;;11.25;68.44
5651;BME280;40241;52.684;9.758;2023-02-23T07:52:47;101047.81;;;11.28;68.47
5651;BME280;40241;52.684;9.758;2023-02-23T07:55:12;101047.59;;;11.32;68.43
5651;BME280;40241;52.684;9.758;2023-02-23T07:57:37;101046.34;;;11.33;68.58
5651;BME280;40241;52.684;9.758;2023-02-23T08:00:05;101052.59;;;11.33;68.41
5651;BME280;40241;52.684;9.758;2023-02-23T08:02:30;101055.34;;;11.33;68.62
5651;BME280;40241;52.684;9.758;2023-02-23T08:04:57;101051.13;;;11.38;68.54
5651;BME280;40241;52.684;9.758;2023-02-23T08:07:22;101050.19;;;11.41;68.63
5651;BME280;40241;52.684;9.758;2023-02-23T08:09:50;101051.97;;;11.44;68.50
5651;BME280;40241;52.684;9.758;2023-02-23T08:12:15;101053.72;;;11.47;68.63
5651;BME280;40241;52.684;9.758;2023-02-23T08:14:41;101055.50;;;11.50;68.58
5651;BME280;40241;52.684;9.758;2023-02-23T08:17:07;101059.03;;;11.51;68.71
5651;BME280;40241;52.684;9.758;2023-02-23T08:19:33;101052.06;;;11.55;68.53
5651;BME280;40241;52.684;9.758;2023-02-23T08:21:59;101062.09;;;11.58;68.70
5651;BME280;40241;52.684;9.758;2023-02-23T08:24:24;101062.63;;;11.62;68.69
5651;BME280;40241;52.684;9.758;2023-02-23T08:26:50;101066.41;;;11.65;68.61
5651;BME280;40241;52.684;9.758;2023-02-23T08:29:16;101070.22;;;11.67;68.48
5651;BME280;40241;52.684;9.758;2023-02-23T08:31:41;101074.00;;;11.70;68.63
5651;BME280;40241;52.684;9.758;2023-02-23T08:34:06;101067.97;;;11.71;68.82
5651;BME280;40241;52.684;9.758;2023-02-23T08:36:32;101106.56;;;11.71;68.78
5651;BME280;40241;52.684;9.758;2023-02-23T08:38:57;101071.75;;;11.74;68.47
5651;BME280;40241;52.684;9.758;2023-02-23T08:41:24;101074.03;;;11.75;68.55
5651;BME280;40241;52.684;9.758;2023-02-23T08:43:52;101077.03;;;11.77;68.76
5651;BME280;40241;52.684;9.758;2023-02-23T08:46:17;101079.78;;;11.77;68.53
5651;BME280;40241;52.684;9.758;2023-02-23T08:48:44;101077.03;;;11.77;68.65
5651;BME280;40241;52.684;9.758;2023-02-23T08:51:11;101084.06;;;11.78;68.64
5651;BME280;40241;52.684;9.758;2023-02-23T08:53:36;101074.06;;;11.81;68.82
5651;BME280;40241;52.684;9.758;2023-02-23T08:56:05;101106.16;;;11.84;68.66
5651;BME280;40241;52.684;9.758;2023-02-23T08:58:31;101080.38;;;11.87;68.64
5651;BME280;40241;52.684;9.758;2023-02-23T09:00:58;101081.66;;;11.91;68.65
5651;BME280;40241;52.684;9.758;2023-02-23T09:03:26;101086.22;;;11.94;68.84
5651;BME280;40241;52.684;9.758;2023-02-23T09:05:55;101080.97;;;11.96;68.87
5651;BME280;40241;52.684;9.758;2023-02-23T09:08:21;101088.72;;;11.98;68.83
5651;BME280;40241;52.684;9.758;2023-02-23T09:10:46;101086.75;;;11.98;68.69
5651;BME280;40241;52.684;9.758;2023-02-23T09:13:12;101086.25;;;12.00;68.61
5651;BME280;40241;52.684;9.758;2023-02-23T09:15:39;101077.47;;;12.01;68.62
5651;BME280;40241;52.684;9.758;2023-02-23T09:18:05;101086.25;;;12.00;68.66
5651;BME280;40241;52.684;9.758;2023-02-23T09:20:31;101084.50;;;12.02;68.69
5651;BME280;40241;52.684;9.758;2023-02-23T09:22:57;101084.25;;;12.06;68.73
5651;BME280;40241;52.684;9.758;2023-02-23T09:25:22;101086.31;;;12.11;68.85
5651;BME280;40241;52.684;9.758;2023-02-23T09:27:48;101084.56;;;12.14;68.81
5651;BME280;40241;52.684;9.758;2023-02-23T09:30:15;101091.84;;;12.17;68.74
5651;BME280;40241;52.684;9.758;2023-02-23T09:32:51;101092.34;;;12.15;68.40
5651;BME280;40241;52.684;9.758;2023-02-23T09:35:18;101089.84;;;12.12;68.47
5651;BME280;40241;52.684;9.758;2023-02-23T09:37:50;101096.06;;;12.07;68.63
5651;BME280;40241;52.684;9.758;2023-02-23T09:40:22;101095.28;;;12.06;68.69
5651;BME280;40241;52.684;9.758;2023-02-23T09:43:15;101103.56;;;12.06;68.91
5651;BME280;40241;52.684;9.758;2023-02-23T09:48:21;101101.06;;;12.08;68.86
5651;BME280;40241;52.684;9.758;2023-02-23T09:50:56;101093.34;;;12.12;68.87
5651;BME280;40241;52.684;9.758;2023-02-23T09:53:29;101096.38;;;12.14;68.75
5651;BME280;40241;52.684;9.758;2023-02-23T09:55:57;101110.16;;;12.14;68.78
5651;BME280;40241;52.684;9.758;2023-02-23T09:58:25;101110.41;;;12.16;68.80
5651;BME280;40241;52.684;9.758;2023-02-23T10:03:37;101113.69;;;12.20;68.73
5651;BME280;40241;52.684;9.758;2023-02-23T10:06:08;101113.00;;;12.25;68.70
5651;BME280;40241;52.684;9.758;2023-02-23T10:08:43;101108.22;;;12.26;68.74
5651;BME280;40241;52.684;9.758;2023-02-23T10:22:33;101118.06;;;12.38;68.72
5651;BME280;40241;52.684;9.758;2023-02-23T10:25:03;101117.06;;;12.41;68.70
5651;BME280;40241;52.684;9.758;2023-02-23T10:27:47;101113.59;;;12.46;68.83
5651;BME280;40241;52.684;9.758;2023-02-23T10:30:22;101118.41;;;12.51;68.76
5651;BME280;40241;52.684;9.758;2023-02-23T10:32:58;101112.63;;;12.54;68.54
5651;BME280;40241;52.684;9.758;2023-02-23T10:35:27;101119.94;;;12.57;68.58
5651;BME280;40241;52.684;9.758;2023-02-23T10:37:54;101120.69;;;12.58;68.67
5651;BME280;40241;52.684;9.758;2023-02-23T10:40:22;101135.75;;;12.57;68.65
5651;BME280;40241;52.684;9.758;2023-02-23T10:42:49;101122.19;;;12.59;68.60
5651;BME280;40241;52.684;9.758;2023-02-23T10:45:18;101127.72;;;12.59;68.80
5651;BME280;40241;52.684;9.758;2023-02-23T10:47:49;101117.44;;;12.65;68.68
5651;BME280;40241;52.684;9.758;2023-02-23T10:50:16;101128.00;;;12.66;68.78
5651;BME280;40241;52.684;9.758;2023-02-23T10:52:44;101131.78;;;12.69;68.62
5651;BME280;40241;52.684;9.758;2023-02-23T10:55:24;101126.28;;;12.74;68.59
5651;BME280;40241;52.684;9.758;2023-02-23T10:58:01;101125.56;;;12.79;68.74
5651;BME280;40241;52.684;9.758;2023-02-23T11:00:28;101125.56;;;12.85;68.56
5651;BME280;40241;52.684;9.758;2023-02-23T11:02:58;101120.06;;;12.85;68.52
5651;BME280;40241;52.684;9.758;2023-02-23T11:05:29;101123.06;;;12.87;68.26
5651;BME280;40241;52.684;9.758;2023-02-23T11:08:18;101132.38;;;12.84;68.25
5651;BME280;40241;52.684;9.758;2023-02-23T11:10:58;101128.81;;;12.78;68.19
5651;BME280;40241;52.684;9.758;2023-02-23T11:13:32;101129.56;;;12.73;68.24
5651;BME280;40241;52.684;9.758;2023-02-23T11:16:07;101128.78;;;12.72;68.00
5651;BME280;40241;52.684;9.758;2023-02-23T11:18:35;101122.50;;;12.72;68.21
5651;BME280;40241;52.684;9.758;2023-02-23T11:21:01;101122.25;;;12.70;68.17
5651;BME280;40241;52.684;9.758;2023-02-23T11:23:34;101111.22;;;12.70;68.16
5651;BME280;40241;52.684;9.758;2023-02-23T11:26:02;101119.75;;;12.72;68.16
5651;BME280;40241;52.684;9.758;2023-02-23T11:28:33;101122.25;;;12.75;68.39
5651;BME280;40241;52.684;9.758;2023-02-23T11:31:14;101120.03;;;12.79;68.37
5651;BME280;40241;52.684;9.758;2023-02-23T11:33:41;101123.78;;;12.82;68.23
5651;BME280;40241;52.684;9.758;2023-02-23T11:36:16;101120.06;;;12.85;68.14
5651;BME280;40241;52.684;9.758;2023-02-23T11:38:44;101121.53;;;12.80;67.97
5651;BME280;40241;52.684;9.758;2023-02-23T11:41:22;101119.28;;;12.79;67.90
5651;BME280;40241;52.684;9.758;2023-02-23T11:43:56;101116.25;;;12.77;67.82
5651;BME280;40241;52.684;9.758;2023-02-23T11:46:22;101110.97;;;12.73;68.06
5651;BME280;40241;52.684;9.758;2023-02-23T11:49:03;101112.22;;;12.78;67.90
5651;BME280;40241;52.684;9.758;2023-02-23T11:51:39;101106.97;;;12.80;68.06
5651;BME280;40241;52.684;9.758;2023-02-23T11:54:06;101108.25;;;12.85;68.00
5651;BME280;40241;52.684;9.758;2023-02-23T11:56:39;101106.75;;;12.89;67.96
5651;BME280;40241;52.684;9.758;2023-02-23T11:59:16;101109.78;;;12.91;67.70
5651;BME280;40241;52.684;9.758;2023-02-23T12:01:45;101107.00;;;12.86;67.68
5651;BME280;40241;52.684;9.758;2023-02-23T12:04:24;101094.69;;;12.81;67.74
5651;BME280;40241;52.684;9.758;2023-02-23T12:07:16;101094.44;;;12.79;67.95
5651;BME280;40241;52.684;9.758;2023-02-23T12:09:42;101092.19;;;12.77;68.00
5651;BME280;40241;52.684;9.758;2023-02-23T12:12:12;101089.66;;;12.79;67.88
5651;BME280;40241;52.684;9.758;2023-02-23T12:17:24;101088.41;;;12.80;67.60
5651;BME280;40241;52.684;9.758;2023-02-23T12:20:01;101092.19;;;12.77;67.67
5651;BME280;40241;52.684;9.758;2023-02-23T12:22:33;101084.63;;;12.78;67.89
5651;BME280;40241;52.684;9.758;2023-02-23T12:25:27;101091.16;;;12.75;67.91
5651;BME280;40241;52.684;9.758;2023-02-23T12:30:42;101084.13;;;12.74;68.06
5651;BME280;40241;52.684;9.758;2023-02-23T12:36:36;101092.19;;;12.83;67.90
5651;BME280;40241;52.684;9.758;2023-02-23T12:41:09;101093.47;;;12.93;67.71
5651;BME280;40241;52.684;9.758;2023-02-23T12:46:11;101091.72;;;12.90;67.84
5651;BME280;40241;52.684;9.758;2023-02-23T12:48:49;101083.44;;;12.90;67.78
5651;BME280;40241;52.684;9.758;2023-02-23T12:51:23;101081.44;;;12.91;67.95
5651;BME280;40241;52.684;9.758;2023-02-23T12:53:51;101087.19;;;12.93;67.92
5651;BME280;40241;52.684;9.758;2023-02-23T12:56:45;101088.19;;;12.90;67.59
5651;BME280;40241;52.684;9.758;2023-02-23T13:01:56;101079.66;;;12.93;67.89
5651;BME280;40241;52.684;9.758;2023-02-23T13:09:51;101084.44;;;12.98;67.95
5651;BME280;40241;52.684;9.758;2023-02-23T13:12:27;101080.69;;;13.01;67.86
5651;BME280;40241;52.684;9.758;2023-02-23T13:18:12;101077.69;;;12.99;67.50
5651;BME280;40241;52.684;9.758;2023-02-23T13:20:46;101074.41;;;12.95;67.66
5651;BME280;40241;52.684;9.758;2023-02-23T13:24:07;101075.41;;;12.98;67.71
5651;BME280;40241;52.684;9.758;2023-02-23T13:26:46;101077.66;;;12.94;67.65
5651;BME280;40241;52.684;9.758;2023-02-23T13:29:23;101071.88;;;12.92;67.70
5651;BME280;40241;52.684;9.758;2023-02-23T13:31:50;101069.63;;;12.90;67.89
5651;BME280;40241;52.684;9.758;2023-02-23T13:34:28;101069.63;;;12.90;67.78
5651;BME280;40241;52.684;9.758;2023-02-23T13:36:56;101073.63;;;12.89;67.71
5651;BME280;40241;52.684;9.758;2023-02-23T13:44:50;101069.34;;;12.82;67.64
5651;BME280;40241;52.684;9.758;2023-02-23T13:52:44;101074.34;;;12.73;67.86
5651;BME280;40241;52.684;9.758;2023-02-23T13:58:14;101072.06;;;12.71;67.84
5651;BME280;40241;52.684;9.758;2023-02-23T14:00:41;101077.81;;;12.68;67.86
5651;BME280;40241;52.684;9.758;2023-02-23T14:03:20;101074.31;;;12.67;67.88
5651;BME280;40241;52.684;9.758;2023-02-23T14:05:50;101074.81;;;12.66;67.89
5651;BME280;40241;52.684;9.758;2023-02-23T14:08:32;101077.56;;;12.66;67.89
5651;BME280;40241;52.684;9.758;2023-02-23T14:10:58;101073.03;;;12.63;67.71
5651;BME280;40241;52.684;9.758;2023-02-23T14:13:33;101066.50;;;12.60;67.83
5651;BME280;40241;52.684;9.758;2023-02-23T14:21:31;101076.28;;;12.61;68.08
5651;BME280;40241;52.684;9.758;2023-02-23T14:29:26;101083.03;;;12.55;67.85
5651;BME280;40241;52.684;9.758;2023-02-23T14:32:01;101082.03;;;12.52;68.06
5651;BME280;40241;52.684;9.758;2023-02-23T14:34:51;101076.75;;;12.54;68.21
5651;BME280;40241;52.684;9.758;2023-02-23T14:40:13;101081.50;;;12.54;68.13
5651;BME280;40241;52.684;9.758;2023-02-23T14:42:40;101072.75;;;12.55;68.34
5651;BME280;40241;52.684;9.758;2023-02-23T14:45:21;101080.53;;;12.57;68.04
5651;BME280;40241;52.684;9.758;2023-02-23T14:47:52;101068.22;;;12.52;68.15
5651;BME280;40241;52.684;9.758;2023-02-23T14:50:28;101075.25;;;12.53;68.10
5651;BME280;40241;52.684;9.758;2023-02-23T14:52:54;101081.03;;;12.55;68.04
5651;BME280;40241;52.684;9.758;2023-02-23T14:55:28;101073.22;;;12.54;67.93
5651;BME280;40241;52.684;9.758;2023-02-23T14:57:55;101081.03;;;12.55;67.93
5651;BME280;40241;52.684;9.758;2023-02-23T15:00:29;101076.00;;;12.54;67.95
5651;BME280;40241;52.684;9.758;2023-02-23T15:03:03;101075.75;;;12.52;68.15